createdAt,value
2019-01-23T00:00:36.595Z,65.31
2019-01-23T00:03:12.404Z,65.28
2019-01-23T00:05:46.990Z,65.60
2019-01-23T00:08:24.900Z,65.35
2019-01-23T00:10:57.816Z,65.08
2019-01-23T00:13:32.737Z,65.39
2019-01-23T00:16:04.581Z,65.62
2019-01-23T00:18:36.398Z,65.52
2019-01-23T00:21:09.999Z,65.34
2019-01-23T00:23:41.838Z,65.37
2019-01-23T00:26:17.316Z,65.49
2019-01-23T00:28:50.639Z,65.71
2019-01-23T00:31:22.488Z,65.56
2019-01-23T00:33:54.708Z,65.85
2019-01-23T00:36:26.540Z,65.93
2019-01-23T00:38:59.841Z,65.75
2019-01-23T00:41:35.930Z,66.06
2019-01-23T00:44:07.760Z,66.37
2019-01-23T00:46:39.607Z,65.61
2019-01-23T00:49:14.524Z,65.24
2019-01-23T00:51:46.374Z,65.62
2019-01-23T00:54:18.299Z,65.67
2019-01-23T00:56:55.844Z,65.63
2019-01-23T00:59:27.689Z,65.62
2019-01-23T01:02:01.151Z,65.76
2019-01-23T01:04:35.581Z,65.59
2019-01-23T01:07:07.417Z,65.63
2019-01-23T01:09:39.239Z,65.74
2019-01-23T01:12:13.111Z,64.94
2019-01-23T01:14:44.948Z,65.48
2019-01-23T01:17:19.850Z,65.15
2019-01-23T01:19:54.137Z,65.12
2019-01-23T01:22:27.039Z,65.08
2019-01-23T01:24:58.892Z,65.01
2019-01-23T01:27:32.351Z,64.92
2019-01-23T01:30:07.070Z,65.10
2019-01-23T01:32:38.885Z,65.34
2019-01-23T01:35:13.825Z,65.55
2019-01-23T01:37:47.099Z,65.65
2019-01-23T01:40:20.050Z,65.60
2019-01-23T01:42:55.821Z,65.92
2019-01-23T01:45:27.654Z,65.95
2019-01-23T01:47:59.492Z,65.75
2019-01-23T01:50:31.333Z,66.12
2019-01-23T01:53:03.140Z,65.45
2019-01-23T01:55:38.271Z,65.53
2019-01-23T01:58:12.288Z,65.55
2019-01-23T02:00:44.140Z,65.49
2019-01-23T02:03:19.983Z,65.83
2019-01-23T02:05:52.935Z,65.81
2019-01-23T02:08:24.750Z,65.48
2019-01-23T02:10:58.952Z,65.56
2019-01-23T02:13:30.778Z,65.84
2019-01-23T02:16:05.279Z,66.11
2019-01-23T02:18:38.508Z,65.53
2019-01-23T02:21:10.351Z,65.60
2019-01-23T02:23:42.177Z,65.73
2019-01-23T02:26:14.029Z,65.66
2019-01-23T02:28:45.905Z,65.70
2019-01-23T02:31:18.872Z,65.21
2019-01-23T02:33:55.149Z,65.43
2019-01-23T02:36:28.252Z,65.66
2019-01-23T02:39:03.171Z,65.63
2019-01-23T02:41:34.979Z,65.92
2019-01-23T02:44:07.061Z,65.58
2019-01-23T02:46:41.193Z,65.45
2019-01-23T02:49:15.553Z,64.69
2019-01-23T02:51:50.034Z,65.09
2019-01-23T02:54:21.893Z,65.62
2019-01-23T02:56:54.798Z,65.29
2019-01-23T02:59:26.656Z,65.42
2019-01-23T03:01:58.480Z,65.55
2019-01-23T03:04:32.959Z,65.42
2019-01-23T03:07:04.787Z,65.20
2019-01-23T03:09:36.793Z,65.25
2019-01-23T03:12:08.620Z,65.53
2019-01-23T03:14:43.508Z,65.83
2019-01-23T03:17:19.609Z,65.63
2019-01-23T03:19:51.475Z,65.51
2019-01-23T03:22:23.387Z,65.38
2019-01-23T03:24:55.233Z,65.30
2019-01-23T03:27:27.045Z,65.46
2019-01-23T03:29:58.894Z,65.12
2019-01-23T03:32:31.026Z,65.38
2019-01-23T03:35:02.862Z,65.55
2019-01-23T03:37:34.710Z,65.62
2019-01-23T03:40:10.874Z,65.59
2019-01-23T03:42:42.682Z,65.83
2019-01-23T03:45:15.882Z,66.03
2019-01-23T03:47:47.826Z,66.24
2019-01-23T03:50:22.127Z,65.63
2019-01-23T03:52:53.986Z,65.75
2019-01-23T03:55:25.837Z,65.59
2019-01-23T03:57:57.697Z,65.54
2019-01-23T04:00:29.490Z,65.50
2019-01-23T04:03:01.319Z,64.80
2019-01-23T04:05:33.154Z,64.89
2019-01-23T04:08:04.978Z,64.68
2019-01-23T04:10:36.814Z,64.72
2019-01-23T04:13:08.631Z,64.41
2019-01-23T04:15:40.537Z,64.38
2019-01-23T04:18:12.393Z,65.28
2019-01-23T04:20:44.214Z,65.23
2019-01-23T04:23:16.055Z,65.31
2019-01-23T04:25:49.410Z,65.20
2019-01-23T04:28:21.240Z,65.52
2019-01-23T04:30:53.075Z,65.85
2019-01-23T04:33:24.896Z,65.87
2019-01-23T04:35:56.731Z,65.60
2019-01-23T04:38:28.540Z,65.86
2019-01-23T04:41:00.407Z,66.03
2019-01-23T04:43:35.019Z,66.11
2019-01-23T04:46:06.870Z,65.98
2019-01-23T04:48:40.994Z,66.15
2019-01-23T04:51:31.700Z,66.07
2019-01-23T04:54:03.891Z,66.18
2019-01-23T04:56:35.857Z,66.06
2019-01-23T04:59:07.684Z,65.93
2019-01-23T05:01:40.604Z,66.26
2019-01-23T05:04:12.621Z,66.25
2019-01-23T05:06:44.482Z,66.56
2019-01-23T05:09:19.152Z,66.75
2019-01-23T05:11:50.998Z,67.25
2019-01-23T05:14:22.818Z,67.23
2019-01-23T05:16:55.813Z,67.13
2019-01-23T05:19:27.637Z,67.47
2019-01-23T05:21:59.500Z,67.61
2019-01-23T05:24:31.433Z,67.37
2019-01-23T05:27:03.433Z,67.78
2019-01-23T05:29:35.256Z,67.71
2019-01-23T05:32:07.105Z,67.49
2019-01-23T05:34:38.934Z,67.99
2019-01-23T05:37:10.806Z,68.07
2019-01-23T05:39:45.022Z,67.93
2019-01-23T05:42:16.906Z,67.71
2019-01-23T05:44:48.731Z,68.06
2019-01-23T05:47:20.585Z,67.88
2019-01-23T05:49:52.394Z,68.01
2019-01-23T05:52:24.233Z,68.01
2019-01-23T05:54:56.073Z,68.04
2019-01-23T05:57:27.889Z,68.13
2019-01-23T06:00:02.525Z,68.20
2019-01-23T06:02:34.794Z,68.04
2019-01-23T06:05:09.235Z,68.12
2019-01-23T06:07:42.176Z,68.13
2019-01-23T06:10:14.278Z,68.05
2019-01-23T06:12:48.700Z,68.39
2019-01-23T06:15:19.596Z,68.50
2019-01-23T06:17:52.994Z,68.39
2019-01-23T06:20:24.851Z,68.24
2019-01-23T06:22:58.900Z,68.45
2019-01-23T06:25:30.779Z,68.35
2019-01-23T06:28:02.608Z,68.69
2019-01-23T06:30:35.911Z,68.60
2019-01-23T06:33:07.752Z,68.51
2019-01-23T06:35:41.412Z,68.57
2019-01-23T06:38:13.220Z,68.12
2019-01-23T06:40:45.093Z,68.42
2019-01-23T06:43:16.940Z,68.64
2019-01-23T06:45:48.759Z,68.40
2019-01-23T06:48:20.860Z,68.22
2019-01-23T06:50:52.690Z,68.34
2019-01-23T06:53:24.779Z,68.18
2019-01-23T06:55:56.605Z,68.45
2019-01-23T06:58:28.443Z,68.28
2019-01-23T07:01:00.290Z,68.35
2019-01-23T07:03:32.171Z,68.57
2019-01-23T07:06:03.998Z,68.50
2019-01-23T07:08:35.991Z,68.67
2019-01-23T07:11:07.834Z,68.77
2019-01-23T07:13:39.686Z,68.78
2019-01-23T07:16:11.528Z,69.09
2019-01-23T07:18:43.378Z,69.04
2019-01-23T07:21:16.491Z,69.21
2019-01-23T07:23:50.412Z,69.04
2019-01-23T07:26:22.252Z,69.22
2019-01-23T07:28:54.220Z,69.42
2019-01-23T07:31:26.119Z,69.40
2019-01-23T07:33:57.977Z,69.23
2019-01-23T07:36:29.808Z,69.33
2019-01-23T07:39:01.655Z,68.90
2019-01-23T07:41:34.561Z,68.75
2019-01-23T07:44:06.392Z,68.85
2019-01-23T07:46:38.261Z,68.72
2019-01-23T07:49:10.099Z,68.99
2019-01-23T07:51:41.918Z,69.10
2019-01-23T07:54:13.794Z,68.87
2019-01-23T07:56:45.648Z,68.68
2019-01-23T07:59:17.490Z,68.83
2019-01-23T08:01:49.335Z,68.90
2019-01-23T08:04:21.317Z,68.89
2019-01-23T08:06:53.167Z,68.62
2019-01-23T08:09:25.004Z,68.41
2019-01-23T08:11:56.836Z,68.10
2019-01-23T08:14:28.671Z,68.15
2019-01-23T08:17:00.533Z,68.26
2019-01-23T08:19:33.356Z,68.16
2019-01-23T08:22:05.194Z,68.13
2019-01-23T08:24:37.054Z,68.40
2019-01-23T08:27:08.905Z,68.13
2019-01-23T08:29:40.750Z,67.31
2019-01-23T08:32:13.562Z,66.67
2019-01-23T08:34:45.386Z,66.77
2019-01-23T08:37:17.322Z,66.09
2019-01-23T08:39:51.749Z,66.19
2019-01-23T08:42:23.594Z,66.07
2019-01-23T08:44:55.451Z,65.87
2019-01-23T08:47:27.343Z,65.80
2019-01-23T08:49:59.154Z,65.72
2019-01-23T08:52:31.004Z,65.82
2019-01-23T08:55:07.829Z,65.77
2019-01-23T08:57:39.712Z,65.79
2019-01-23T09:00:30.638Z,66.29
2019-01-23T09:03:02.602Z,65.98
2019-01-23T09:05:34.456Z,66.00
2019-01-23T09:08:07.608Z,65.98
2019-01-23T09:10:39.440Z,65.52
2019-01-23T09:13:11.272Z,65.38
2019-01-23T09:15:43.103Z,65.30
2019-01-23T09:18:15.199Z,65.41
2019-01-23T09:20:47.078Z,65.17
2019-01-23T09:23:20.730Z,65.72
2019-01-23T09:25:53.686Z,65.83
2019-01-23T09:28:25.552Z,65.42
2019-01-23T09:32:00.479Z,65.21
2019-01-23T09:35:12.343Z,64.95
2019-01-23T09:38:30.698Z,64.71
2019-01-23T09:41:35.189Z,64.94
2019-01-23T09:45:11.069Z,64.25
2019-01-23T09:48:00.772Z,64.39
2019-01-23T09:51:40.203Z,63.83
2019-01-23T09:54:15.981Z,63.14
2019-01-23T09:56:50.093Z,63.39
2019-01-23T09:59:21.939Z,62.81
2019-01-23T10:01:53.942Z,63.04
2019-01-23T10:04:25.753Z,62.86
2019-01-23T10:06:57.613Z,62.17
2019-01-23T10:09:29.502Z,61.89
2019-01-23T10:12:01.328Z,61.86
2019-01-23T10:14:34.246Z,61.23
2019-01-23T10:17:06.121Z,61.74
2019-01-23T10:19:37.957Z,61.52
2019-01-23T10:22:11.700Z,61.69
2019-01-23T10:24:44.340Z,61.50
2019-01-23T10:27:16.181Z,61.20
2019-01-23T10:29:47.995Z,61.28
2019-01-23T10:32:19.979Z,61.19
2019-01-23T10:34:54.614Z,60.50
2019-01-23T10:37:26.446Z,60.56
2019-01-23T10:39:58.359Z,60.76
2019-01-23T10:42:30.209Z,60.36
2019-01-23T10:45:02.067Z,59.42
2019-01-23T10:47:33.940Z,59.90
2019-01-23T10:50:07.306Z,59.45
2019-01-23T10:52:39.112Z,58.89
2019-01-23T10:55:11.618Z,58.81
2019-01-23T10:57:43.555Z,58.71
2019-01-23T11:00:18.293Z,58.65
2019-01-23T11:02:50.107Z,58.95
2019-01-23T11:05:24.256Z,59.19
2019-01-23T11:07:56.122Z,59.19
2019-01-23T11:10:27.979Z,59.45
2019-01-23T11:12:59.823Z,60.10
2019-01-23T11:15:31.686Z,59.48
2019-01-23T11:18:03.501Z,59.82
2019-01-23T11:20:35.340Z,59.95
2019-01-23T11:23:07.351Z,60.21
2019-01-23T11:25:39.312Z,60.42
2019-01-23T11:28:11.150Z,60.64
2019-01-23T11:30:43.007Z,60.47
2019-01-23T11:33:14.817Z,60.46
2019-01-23T11:35:46.668Z,60.70
2019-01-23T11:38:18.506Z,60.67
2019-01-23T11:40:50.349Z,60.74
2019-01-23T11:43:22.182Z,60.84
2019-01-23T11:45:54.053Z,61.02
2019-01-23T11:48:25.885Z,60.92
2019-01-23T11:50:57.710Z,60.33
2019-01-23T11:53:29.566Z,60.64
2019-01-23T11:56:01.384Z,61.22
2019-01-23T11:58:33.254Z,60.70
2019-01-23T12:01:05.483Z,60.76
2019-01-23T12:03:37.322Z,60.94
2019-01-23T12:06:09.143Z,60.23
2019-01-23T12:08:40.994Z,60.17
2019-01-23T12:11:13.003Z,60.49
2019-01-23T12:13:44.873Z,60.74
2019-01-23T12:16:16.704Z,61.24
2019-01-23T12:18:48.522Z,61.70
2019-01-23T12:21:20.363Z,61.17
2019-01-23T12:23:58.239Z,61.63
2019-01-23T12:26:25.741Z,61.50
2019-01-23T12:28:59.466Z,61.90
2019-01-23T12:31:35.094Z,62.12
2019-01-23T12:34:06.648Z,61.90
2019-01-23T12:36:38.506Z,62.19
2019-01-23T12:39:10.648Z,62.07
2019-01-23T12:41:42.670Z,61.67
2019-01-23T12:44:14.600Z,61.82
2019-01-23T12:46:47.830Z,61.90
2019-01-23T12:49:19.754Z,61.84
2019-01-23T12:51:51.670Z,61.57
2019-01-23T12:54:23.506Z,61.53
2019-01-23T12:56:55.447Z,61.66
2019-01-23T12:59:27.271Z,61.59
2019-01-23T13:01:59.322Z,61.42
2019-01-23T13:04:31.175Z,61.18
2019-01-23T13:07:03.009Z,61.07
2019-01-23T13:09:37.585Z,61.00
2019-01-23T13:12:09.486Z,61.56
2019-01-23T13:14:41.371Z,61.65
2019-01-23T13:17:16.426Z,61.49
2019-01-23T13:19:48.336Z,60.88
2019-01-23T13:22:21.850Z,60.99
2019-01-23T13:24:53.834Z,61.16
2019-01-23T13:27:25.675Z,60.81
2019-01-23T13:29:57.494Z,60.96
2019-01-23T13:32:29.504Z,60.67
2019-01-23T13:35:01.340Z,60.78
2019-01-23T13:37:33.273Z,60.94
2019-01-23T13:40:07.791Z,61.27
2019-01-23T13:42:43.204Z,61.13
2019-01-23T13:45:15.325Z,61.69
2019-01-23T13:47:48.275Z,61.78
2019-01-23T13:50:20.149Z,62.25
2019-01-23T13:52:51.999Z,62.65
2019-01-23T13:55:25.635Z,62.28
2019-01-23T13:57:57.484Z,62.47
2019-01-23T14:00:35.776Z,62.50
2019-01-23T14:03:09.037Z,62.32
2019-01-23T14:05:42.011Z,62.50
2019-01-23T14:08:14.103Z,62.65
2019-01-23T14:10:45.925Z,62.98
2019-01-23T14:13:17.759Z,63.42
2019-01-23T14:15:56.327Z,63.89
2019-01-23T14:18:36.192Z,63.82
2019-01-23T14:21:11.918Z,64.02
2019-01-23T14:23:46.778Z,63.74
2019-01-23T14:26:22.125Z,63.88
2019-01-23T14:28:53.984Z,63.96
2019-01-23T14:31:33.350Z,63.56
2019-01-23T14:34:05.210Z,63.59
2019-01-23T14:36:39.787Z,64.04
2019-01-23T14:39:11.651Z,63.60
2019-01-23T14:41:43.531Z,63.21
2019-01-23T14:44:15.403Z,63.34
2019-01-23T14:46:53.198Z,63.71
2019-01-23T14:49:27.099Z,63.45
2019-01-23T14:51:59.723Z,63.47
2019-01-23T14:54:31.574Z,63.58
2019-01-23T14:57:05.620Z,63.79
2019-01-23T14:59:37.492Z,63.68
2019-01-23T15:02:12.140Z,64.21
2019-01-23T15:04:44.019Z,64.64
2019-01-23T15:07:15.869Z,65.25
2019-01-23T15:09:50.236Z,65.33
2019-01-23T15:12:22.090Z,65.33
2019-01-23T15:14:53.959Z,65.47
2019-01-23T15:17:25.807Z,65.75
2019-01-23T15:19:57.664Z,66.56
2019-01-23T15:22:29.516Z,66.54
2019-01-23T15:25:01.365Z,66.45
2019-01-23T15:27:34.390Z,66.78
2019-01-23T15:30:10.487Z,67.15
2019-01-23T15:32:43.697Z,67.33
2019-01-23T15:35:20.702Z,67.49
2019-01-23T15:37:52.664Z,67.93
2019-01-23T15:40:27.994Z,68.15
2019-01-23T15:42:59.906Z,67.90
2019-01-23T15:45:31.795Z,67.91
2019-01-23T15:48:03.670Z,67.86
2019-01-23T15:50:35.530Z,67.95
2019-01-23T15:53:10.203Z,68.27
2019-01-23T15:55:42.098Z,68.39
2019-01-23T15:58:15.454Z,68.53
2019-01-23T16:00:51.977Z,68.63
2019-01-23T16:03:25.411Z,68.91
2019-01-23T16:05:57.256Z,68.87
2019-01-23T16:08:30.592Z,68.84
2019-01-23T16:11:02.530Z,68.70
2019-01-23T16:13:42.438Z,68.91
2019-01-23T16:16:17.778Z,69.18
2019-01-23T16:18:49.929Z,69.17
2019-01-23T16:21:21.754Z,69.38
2019-01-23T16:23:53.625Z,69.13
2019-01-23T16:26:28.030Z,68.82
2019-01-23T16:29:03.923Z,68.72
2019-01-23T16:31:35.770Z,69.01
2019-01-23T16:34:07.715Z,69.02
2019-01-23T16:36:41.184Z,68.88
2019-01-23T16:39:17.599Z,69.45
2019-01-23T16:41:53.146Z,69.38
2019-01-23T16:44:28.998Z,69.13
2019-01-23T16:47:06.433Z,69.75
2019-01-23T16:49:41.622Z,69.91
2019-01-23T16:52:16.579Z,70.01
2019-01-23T16:54:54.067Z,69.83
2019-01-23T16:57:30.728Z,69.61
2019-01-23T17:00:07.607Z,69.56
2019-01-23T17:02:40.684Z,69.68
2019-01-23T17:05:18.635Z,69.85
2019-01-23T17:07:53.326Z,69.62
2019-01-23T17:10:26.817Z,69.31
2019-01-23T17:12:58.681Z,69.35
2019-01-23T17:15:30.536Z,69.40
2019-01-23T17:18:02.380Z,69.07
2019-01-23T17:20:41.154Z,68.52
2019-01-23T17:23:14.100Z,68.75
2019-01-23T17:25:46.026Z,68.32
2019-01-23T17:28:19.492Z,68.28
2019-01-23T17:30:51.369Z,68.08
2019-01-23T17:33:24.355Z,67.60
2019-01-23T17:35:56.253Z,67.54
2019-01-23T17:38:29.298Z,67.54
2019-01-23T17:41:04.097Z,67.56
2019-01-23T17:43:38.297Z,67.86
2019-01-23T17:46:10.225Z,68.07
2019-01-23T17:48:42.148Z,68.27
2019-01-23T17:51:14.078Z,68.34
2019-01-23T17:53:46.035Z,69.01
2019-01-23T17:56:18.151Z,68.90
2019-01-23T17:58:50.125Z,69.16
2019-01-23T18:01:22.071Z,69.51
2019-01-23T18:03:54.431Z,69.36
2019-01-23T18:06:26.294Z,69.73
2019-01-23T18:08:58.182Z,69.79
2019-01-23T18:11:33.226Z,69.83
2019-01-23T18:14:05.196Z,70.12
2019-01-23T18:16:38.164Z,69.92
2019-01-23T18:19:10.032Z,69.72
2019-01-23T18:21:41.961Z,70.00
2019-01-23T18:24:13.907Z,70.01
2019-01-23T18:26:45.778Z,69.93
2019-01-23T18:29:17.718Z,69.71
2019-01-23T18:31:56.111Z,68.91
2019-01-23T18:35:21.789Z,68.81
2019-01-23T18:38:32.064Z,68.85
2019-01-23T18:41:59.777Z,69.28
2019-01-23T18:45:28.247Z,69.25
2019-01-23T18:48:33.544Z,69.58
2019-01-23T18:51:54.060Z,69.71
2019-01-23T18:54:26.199Z,70.00
2019-01-23T18:56:59.952Z,69.90
2019-01-23T18:59:31.826Z,70.81
2019-01-23T19:02:03.670Z,71.14
2019-01-23T19:04:37.938Z,71.45
2019-01-23T19:07:09.806Z,71.55
2019-01-23T19:09:41.679Z,71.34
2019-01-23T19:12:14.904Z,71.56
2019-01-23T19:14:46.821Z,71.60
2019-01-23T19:17:21.558Z,71.66
2019-01-23T19:19:53.427Z,71.74
2019-01-23T19:22:26.435Z,72.02
2019-01-23T19:24:58.285Z,72.43
2019-01-23T19:27:31.847Z,72.45
2019-01-23T19:30:09.153Z,72.93
2019-01-23T19:32:37.391Z,73.22
2019-01-23T19:35:09.730Z,73.56
2019-01-23T19:37:43.239Z,73.61
2019-01-23T19:40:18.445Z,73.28
2019-01-23T19:42:51.399Z,73.72
2019-01-23T19:45:24.622Z,73.66
2019-01-23T19:47:56.598Z,73.48
2019-01-23T19:50:28.469Z,73.17
2019-01-23T19:53:03.659Z,72.40
2019-01-23T19:55:40.943Z,72.24
2019-01-23T19:58:12.816Z,72.22
2019-01-23T20:00:44.812Z,71.56
2019-01-23T20:03:23.853Z,71.05
2019-01-23T20:05:55.716Z,71.17
2019-01-23T20:08:27.631Z,72.07
2019-01-23T20:11:05.529Z,71.81
2019-01-23T20:13:38.598Z,71.79
2019-01-23T20:16:13.580Z,72.15
2019-01-23T20:18:48.438Z,72.04
2019-01-23T20:21:20.346Z,72.18
2019-01-23T20:23:54.295Z,71.89
2019-01-23T20:26:26.160Z,71.76
2019-01-23T20:29:03.074Z,71.54
2019-01-23T20:31:34.959Z,71.24
2019-01-23T20:34:13.172Z,71.16
2019-01-23T20:36:46.486Z,71.33
2019-01-23T20:39:18.377Z,71.52
2019-01-23T20:41:51.792Z,72.22
2019-01-23T20:44:23.688Z,71.11
2019-01-23T20:46:55.549Z,70.94
2019-01-23T20:49:28.791Z,70.70
2019-01-23T20:52:00.741Z,70.72
2019-01-23T20:54:32.619Z,70.97
2019-01-23T20:57:04.462Z,71.20
2019-01-23T20:59:37.516Z,70.76
2019-01-23T21:02:09.657Z,70.84
2019-01-23T21:04:43.469Z,69.98
2019-01-23T21:07:15.358Z,70.01
2019-01-23T21:09:47.224Z,70.38
2019-01-23T21:12:21.879Z,69.87
2019-01-23T21:14:54.872Z,70.06
2019-01-23T21:17:34.439Z,70.53
2019-01-23T21:20:08.717Z,70.45
2019-01-23T21:22:40.516Z,70.52
2019-01-23T21:25:16.169Z,69.76
2019-01-23T21:27:49.040Z,70.42
2019-01-23T21:30:26.697Z,70.23
2019-01-23T21:32:58.607Z,70.34
2019-01-23T21:35:32.078Z,71.21
2019-01-23T21:38:03.905Z,71.63
2019-01-23T21:40:38.769Z,71.86
2019-01-23T21:43:12.702Z,71.76
2019-01-23T21:45:46.946Z,71.53
2019-01-23T21:48:18.950Z,71.77
2019-01-23T21:50:50.883Z,72.26
2019-01-23T21:53:24.545Z,72.55
2019-01-23T21:55:58.499Z,72.96
2019-01-23T21:58:32.640Z,73.15
2019-01-23T22:01:06.326Z,73.35
2019-01-23T22:03:38.213Z,73.55
2019-01-23T22:06:16.080Z,73.00
2019-01-23T22:08:48.607Z,73.32
2019-01-23T22:11:20.471Z,73.69
2019-01-23T22:13:58.596Z,73.45
2019-01-23T22:16:30.459Z,73.17
2019-01-23T22:19:02.341Z,72.88
2019-01-23T22:21:34.205Z,72.73
2019-01-23T22:24:15.193Z,72.49
2019-01-23T22:26:48.149Z,72.90
2019-01-23T22:29:22.804Z,72.35
2019-01-23T22:31:57.643Z,72.73
2019-01-23T22:34:35.451Z,71.80
2019-01-23T22:37:10.138Z,72.06
2019-01-23T22:39:43.650Z,72.52
2019-01-23T22:42:15.473Z,72.01
2019-01-23T22:44:47.323Z,71.35
2019-01-23T22:47:20.275Z,71.58
2019-01-23T22:49:53.564Z,71.65
2019-01-23T22:52:27.653Z,71.28
2019-01-23T22:54:59.627Z,71.51
2019-01-23T22:57:34.504Z,71.89
2019-01-23T23:00:27.389Z,71.95
2019-01-23T23:03:03.596Z,72.15
2019-01-23T23:05:37.067Z,72.31
2019-01-23T23:08:10.745Z,72.71
2019-01-23T23:10:45.358Z,73.12
2019-01-23T23:13:19.951Z,73.07
2019-01-23T23:15:56.307Z,73.23
2019-01-23T23:18:28.155Z,73.22
2019-01-23T23:21:03.565Z,73.38
2019-01-23T23:23:38.148Z,73.52
2019-01-23T23:26:15.071Z,73.51
2019-01-23T23:28:46.922Z,73.33
2019-01-23T23:31:21.682Z,72.94
2019-01-23T23:33:59.782Z,72.91
2019-01-23T23:36:31.279Z,72.27
2019-01-23T23:39:03.215Z,72.16
2019-01-23T23:41:41.701Z,71.95
2019-01-23T23:44:11.575Z,72.05
2019-01-23T23:46:45.789Z,71.25
2019-01-23T23:49:17.623Z,71.16
2019-01-23T23:51:54.259Z,70.87
2019-01-23T23:54:26.112Z,71.17
2019-01-23T23:57:00.602Z,71.41
2019-01-23T23:59:32.465Z,70.86
